LHPA

Pápa Air Base Airport

Pápa, Hungary
TAF LHPA 171115Z 1712/1812 15006KT CAVOK
Issued Valid From Valid To
Aug-17 @ 11:15 UTC
(4 hours ago)
Aug-17 @ 12:00 UTC
(3 hours ago)
Aug-18 @ 12:00 UTC
(in 21 hours)
Aug-17 @ 12:00 to Aug-18 @ 12:00
TAF LHPA 171115Z 1712/1812 15006KT CAVOK
Wind Visibility Clouds Conditions
150° at 6 knots 10,000+ meters
  • No significant clouds
TAF LHPA 171115Z 1712/1812 15006KT CAVOK
Issued Aug-17 @ 11:15 UTC
(4 hours ago)
Valid From Aug-17 @ 12:00 UTC
(3 hours ago)
Valid To Aug-18 @ 12:00 UTC
(in 21 hours)
Aug-17 @ 12:00 - Aug-18 @ 12:00
Wind Visibility
150° at 6 knots 10,000+ meters
Clouds
  • No significant clouds
Conditions